sensor_id;sensor_type;location;lat;lon;timestamp;pressure;altitude;pressure_sealevel;temperature;humidity
47883;BME280;37739;50.350;7.578;2022-11-14T00:00:36;99783.41;;;4.64;89.13
47883;BME280;37739;50.350;7.578;2022-11-14T00:03:05;99778.22;;;4.63;89.26
47883;BME280;37739;50.350;7.578;2022-11-14T00:05:32;99773.13;;;4.63;89.15
47883;BME280;37739;50.350;7.578;2022-11-14T00:07:57;99774.81;;;4.62;88.71
47883;BME280;37739;50.350;7.578;2022-11-14T00:10:28;99777.44;;;4.64;89.01
47883;BME280;37739;50.350;7.578;2022-11-14T00:12:58;99779.88;;;4.62;89.01
47883;BME280;37739;50.350;7.578;2022-11-14T00:15:25;99770.13;;;4.55;88.83
47883;BME280;37739;50.350;7.578;2022-11-14T00:17:50;99774.34;;;4.55;89.19
47883;BME280;37739;50.350;7.578;2022-11-14T00:20:16;99766.72;;;4.55;89.62
47883;BME280;37739;50.350;7.578;2022-11-14T00:22:43;99770.72;;;4.51;90.22
47883;BME280;37739;50.350;7.578;2022-11-14T00:25:09;99770.63;;;4.49;90.24
47883;BME280;37739;50.350;7.578;2022-11-14T00:27:34;99765.19;;;4.43;91.02
47883;BME280;37739;50.350;7.578;2022-11-14T00:30:00;99761.94;;;4.46;90.73
47883;BME280;37739;50.350;7.578;2022-11-14T00:32:25;99754.94;;;4.42;90.88
47883;BME280;37739;50.350;7.578;2022-11-14T00:34:50;99752.28;;;4.40;91.43
47883;BME280;37739;50.350;7.578;2022-11-14T00:37:16;99748.00;;;4.39;91.26
47883;BME280;37739;50.350;7.578;2022-11-14T00:39:43;99746.84;;;4.34;91.19
47883;BME280;37739;50.350;7.578;2022-11-14T00:42:08;99732.41;;;4.33;91.84
47883;BME280;37739;50.350;7.578;2022-11-14T00:44:34;99734.03;;;4.32;91.70
47883;BME280;37739;50.350;7.578;2022-11-14T00:47:01;99730.03;;;4.36;91.74
47883;BME280;37739;50.350;7.578;2022-11-14T00:49:27;99729.06;;;4.34;91.75
47883;BME280;37739;50.350;7.578;2022-11-14T00:51:52;99721.34;;;4.32;91.83
47883;BME280;37739;50.350;7.578;2022-11-14T00:54:20;99724.78;;;4.33;91.54
47883;BME280;37739;50.350;7.578;2022-11-14T00:56:45;99730.44;;;4.29;92.18
47883;BME280;37739;50.350;7.578;2022-11-14T00:59:11;99725.00;;;4.23;91.76
47883;BME280;37739;50.350;7.578;2022-11-14T01:01:36;99728.50;;;4.25;91.88
47883;BME280;37739;50.350;7.578;2022-11-14T01:04:03;99727.38;;;4.20;92.11
47883;BME280;37739;50.350;7.578;2022-11-14T01:06:31;99723.84;;;4.18;92.47
47883;BME280;37739;50.350;7.578;2022-11-14T01:08:58;99721.22;;;4.16;93.09
47883;BME280;37739;50.350;7.578;2022-11-14T01:11:31;99713.41;;;4.13;92.86
47883;BME280;37739;50.350;7.578;2022-11-14T01:13:58;99709.19;;;4.13;92.87
47883;BME280;37739;50.350;7.578;2022-11-14T01:16:27;99709.78;;;4.09;92.85
47883;BME280;37739;50.350;7.578;2022-11-14T01:18:54;99700.59;;;4.11;93.22
47883;BME280;37739;50.350;7.578;2022-11-14T01:21:22;99697.00;;;4.08;93.35
47883;BME280;37739;50.350;7.578;2022-11-14T01:23:47;99695.47;;;4.10;93.42
47883;BME280;37739;50.350;7.578;2022-11-14T01:26:13;99694.06;;;4.15;93.25
47883;BME280;37739;50.350;7.578;2022-11-14T01:28:39;99695.72;;;4.15;93.14
47883;BME280;37739;50.350;7.578;2022-11-14T01:33:41;99686.34;;;4.13;92.32
47883;BME280;37739;50.350;7.578;2022-11-14T01:36:10;99682.06;;;4.12;92.28
47883;BME280;37739;50.350;7.578;2022-11-14T01:38:36;99692.81;;;4.08;92.21
47883;BME280;37739;50.350;7.578;2022-11-14T01:41:04;99684.84;;;4.02;91.88
47883;BME280;37739;50.350;7.578;2022-11-14T01:43:34;99674.09;;;4.06;92.45
47883;BME280;37739;50.350;7.578;2022-11-14T01:48:49;99672.63;;;4.10;91.52
47883;BME280;37739;50.350;7.578;2022-11-14T01:51:34;99667.81;;;4.15;91.91
47883;BME280;37739;50.350;7.578;2022-11-14T01:54:10;99669.53;;;4.16;91.11
47883;BME280;37739;50.350;7.578;2022-11-14T01:56:47;99668.97;;;4.20;91.31
47883;BME280;37739;50.350;7.578;2022-11-14T01:59:20;99662.97;;;4.19;91.28
47883;BME280;37739;50.350;7.578;2022-11-14T02:01:48;99655.47;;;4.21;90.61
47883;BME280;37739;50.350;7.578;2022-11-14T02:04:20;99658.00;;;4.21;90.48
47883;BME280;37739;50.350;7.578;2022-11-14T02:06:53;99648.66;;;4.20;90.81
47883;BME280;37739;50.350;7.578;2022-11-14T02:09:19;99645.72;;;4.13;89.75
47883;BME280;37739;50.350;7.578;2022-11-14T02:11:45;99639.88;;;4.15;90.41
47883;BME280;37739;50.350;7.578;2022-11-14T02:14:11;99646.13;;;4.20;90.45
47883;BME280;37739;50.350;7.578;2022-11-14T02:16:40;99638.41;;;4.18;90.74
47883;BME280;37739;50.350;7.578;2022-11-14T02:19:06;99642.25;;;4.26;90.08
47883;BME280;37739;50.350;7.578;2022-11-14T02:21:34;99640.69;;;4.28;90.22
47883;BME280;37739;50.350;7.578;2022-11-14T02:24:06;99638.84;;;4.26;89.71
47883;BME280;37739;50.350;7.578;2022-11-14T02:26:33;99636.22;;;4.24;89.43
47883;BME280;37739;50.350;7.578;2022-11-14T02:28:58;99628.50;;;4.23;90.01
47883;BME280;37739;50.350;7.578;2022-11-14T02:31:23;99627.63;;;4.22;89.54
47883;BME280;37739;50.350;7.578;2022-11-14T02:33:51;99626.56;;;4.19;89.37
47883;BME280;37739;50.350;7.578;2022-11-14T02:36:16;99618.69;;;4.14;89.73
47883;BME280;37739;50.350;7.578;2022-11-14T02:38:44;99623.78;;;4.14;89.35
47883;BME280;37739;50.350;7.578;2022-11-14T02:41:09;99619.47;;;4.13;89.27
47883;BME280;37739;50.350;7.578;2022-11-14T02:43:38;99617.03;;;4.15;89.38
47883;BME280;37739;50.350;7.578;2022-11-14T02:46:04;99616.16;;;4.14;89.63
47883;BME280;37739;50.350;7.578;2022-11-14T02:48:31;99614.28;;;4.11;90.25
47883;BME280;37739;50.350;7.578;2022-11-14T02:50:56;99613.06;;;4.05;90.67
47883;BME280;37739;50.350;7.578;2022-11-14T02:53:24;99615.41;;;4.02;90.80
47883;BME280;37739;50.350;7.578;2022-11-14T02:55:52;99613.38;;;3.96;91.31
47883;BME280;37739;50.350;7.578;2022-11-14T02:58:17;99604.03;;;3.95;91.35
47883;BME280;37739;50.350;7.578;2022-11-14T03:00:45;99609.25;;;3.98;91.44
47883;BME280;37739;50.350;7.578;2022-11-14T03:03:12;99609.25;;;3.98;91.51
47883;BME280;37739;50.350;7.578;2022-11-14T03:05:40;99600.31;;;3.90;91.87
47883;BME280;37739;50.350;7.578;2022-11-14T03:08:09;99606.66;;;3.97;91.82
47883;BME280;37739;50.350;7.578;2022-11-14T03:10:35;99607.53;;;3.97;92.39
47883;BME280;37739;50.350;7.578;2022-11-14T03:13:03;99604.78;;;3.94;92.42
47883;BME280;37739;50.350;7.578;2022-11-14T03:15:30;99601.75;;;4.00;92.41
47883;BME280;37739;50.350;7.578;2022-11-14T03:17:55;99603.78;;;4.05;92.34
47883;BME280;37739;50.350;7.578;2022-11-14T03:20:28;99613.06;;;4.05;92.29
47883;BME280;37739;50.350;7.578;2022-11-14T03:22:53;99602.72;;;4.02;92.25
47883;BME280;37739;50.350;7.578;2022-11-14T03:25:20;99603.50;;;4.01;92.77
47883;BME280;37739;50.350;7.578;2022-11-14T03:27:48;99607.13;;;4.04;92.76
47883;BME280;37739;50.350;7.578;2022-11-14T03:30:13;99618.03;;;4.03;92.40
47883;BME280;37739;50.350;7.578;2022-11-14T03:32:39;99610.53;;;4.05;93.02
47883;BME280;37739;50.350;7.578;2022-11-14T03:35:04;99612.25;;;4.06;92.91
47883;BME280;37739;50.350;7.578;2022-11-14T03:37:30;99619.91;;;3.92;92.22
47883;BME280;37739;50.350;7.578;2022-11-14T03:39:57;99618.78;;;3.87;93.64
47883;BME280;37739;50.350;7.578;2022-11-14T03:42:23;99610.00;;;3.82;93.13
47883;BME280;37739;50.350;7.578;2022-11-14T03:44:48;99603.25;;;3.83;94.12
47883;BME280;37739;50.350;7.578;2022-11-14T03:47:13;99596.91;;;3.89;94.20
47883;BME280;37739;50.350;7.578;2022-11-14T03:49:41;99608.50;;;3.99;94.12
47883;BME280;37739;50.350;7.578;2022-11-14T03:52:09;99609.66;;;4.04;94.23
47883;BME280;37739;50.350;7.578;2022-11-14T03:54:37;99612.25;;;4.06;93.92
47883;BME280;37739;50.350;7.578;2022-11-14T03:57:03;99610.66;;;3.93;92.93
47883;BME280;37739;50.350;7.578;2022-11-14T03:59:28;99611.16;;;3.87;93.46
47883;BME280;37739;50.350;7.578;2022-11-14T04:01:56;99613.84;;;3.76;93.05
47883;BME280;37739;50.350;7.578;2022-11-14T04:04:23;99613.34;;;3.81;93.66
47883;BME280;37739;50.350;7.578;2022-11-14T04:06:51;99616.16;;;3.86;93.81
47883;BME280;37739;50.350;7.578;2022-11-14T04:09:19;99600.47;;;3.78;93.48
47883;BME280;37739;50.350;7.578;2022-11-14T04:11:44;99602.50;;;3.84;93.77
47883;BME280;37739;50.350;7.578;2022-11-14T04:14:09;99600.19;;;3.73;93.18
47883;BME280;37739;50.350;7.578;2022-11-14T04:16:35;99602.72;;;3.73;93.51
47883;BME280;37739;50.350;7.578;2022-11-14T04:19:00;99603.75;;;3.77;94.57
47883;BME280;37739;50.350;7.578;2022-11-14T04:21:28;99592.38;;;3.70;93.73
47883;BME280;37739;50.350;7.578;2022-11-14T04:23:53;99590.22;;;3.77;94.10
47883;BME280;37739;50.350;7.578;2022-11-14T04:26:18;99593.25;;;3.71;93.52
47883;BME280;37739;50.350;7.578;2022-11-14T04:28:46;99586.06;;;3.64;93.92
47883;BME280;37739;50.350;7.578;2022-11-14T04:31:14;99578.50;;;3.50;94.17
47883;BME280;37739;50.350;7.578;2022-11-14T04:33:41;99579.47;;;3.52;94.41
47883;BME280;37739;50.350;7.578;2022-11-14T04:36:06;99575.03;;;3.63;94.21
47883;BME280;37739;50.350;7.578;2022-11-14T04:38:34;99570.91;;;3.65;93.80
47883;BME280;37739;50.350;7.578;2022-11-14T04:40:59;99569.28;;;3.66;93.56
47883;BME280;37739;50.350;7.578;2022-11-14T04:43:25;99585.53;;;3.69;94.04
47883;BME280;37739;50.350;7.578;2022-11-14T04:45:50;99573.66;;;3.68;93.68
47883;BME280;37739;50.350;7.578;2022-11-14T04:48:18;99585.03;;;3.75;93.17
47883;BME280;37739;50.350;7.578;2022-11-14T04:50:46;99579.38;;;3.79;93.59
47883;BME280;37739;50.350;7.578;2022-11-14T04:53:11;99577.22;;;3.85;93.08
47883;BME280;37739;50.350;7.578;2022-11-14T04:55:37;99583.34;;;3.89;93.08
47883;BME280;37739;50.350;7.578;2022-11-14T04:58:04;99579.31;;;3.92;92.87
47883;BME280;37739;50.350;7.578;2022-11-14T05:00:30;99577.22;;;4.00;93.04
47883;BME280;37739;50.350;7.578;2022-11-14T05:02:57;99571.63;;;4.06;93.15
47883;BME280;37739;50.350;7.578;2022-11-14T05:05:25;99568.59;;;4.11;93.24
47883;BME280;37739;50.350;7.578;2022-11-14T05:07:50;99567.97;;;4.16;92.64
47883;BME280;37739;50.350;7.578;2022-11-14T05:10:16;99562.22;;;4.18;92.89
47883;BME280;37739;50.350;7.578;2022-11-14T05:12:43;99556.19;;;4.16;93.10
47883;BME280;37739;50.350;7.578;2022-11-14T05:15:09;99555.56;;;4.20;93.32
47883;BME280;37739;50.350;7.578;2022-11-14T05:17:36;99556.63;;;4.24;93.44
47883;BME280;37739;50.350;7.578;2022-11-14T05:20:04;99557.06;;;4.17;92.96
47883;BME280;37739;50.350;7.578;2022-11-14T05:22:30;99551.78;;;4.13;93.27
47883;BME280;37739;50.350;7.578;2022-11-14T05:24:55;99547.84;;;4.19;93.65
47883;BME280;37739;50.350;7.578;2022-11-14T05:27:22;99551.47;;;4.22;93.78
47883;BME280;37739;50.350;7.578;2022-11-14T05:29:50;99552.16;;;4.20;93.45
47883;BME280;37739;50.350;7.578;2022-11-14T05:32:15;99542.78;;;4.19;93.65
47883;BME280;37739;50.350;7.578;2022-11-14T05:34:45;99543.50;;;4.16;93.92
47883;BME280;37739;50.350;7.578;2022-11-14T05:37:10;99551.72;;;4.27;94.17
47883;BME280;37739;50.350;7.578;2022-11-14T05:39:36;99546.19;;;4.34;94.06
47883;BME280;37739;50.350;7.578;2022-11-14T05:42:03;99544.00;;;4.40;93.75
47883;BME280;37739;50.350;7.578;2022-11-14T05:44:28;99543.75;;;4.36;94.01
47883;BME280;37739;50.350;7.578;2022-11-14T05:46:56;99551.00;;;4.44;93.74
47883;BME280;37739;50.350;7.578;2022-11-14T05:49:24;99551.19;;;4.47;93.54
47883;BME280;37739;50.350;7.578;2022-11-14T05:51:52;99553.03;;;4.50;93.84
47883;BME280;37739;50.350;7.578;2022-11-14T05:54:17;99546.03;;;4.46;93.80
47883;BME280;37739;50.350;7.578;2022-11-14T05:56:42;99544.53;;;4.49;93.48
47883;BME280;37739;50.350;7.578;2022-11-14T05:59:10;99534.56;;;4.52;93.69
47883;BME280;37739;50.350;7.578;2022-11-14T06:01:35;99540.41;;;4.51;93.48
47883;BME280;37739;50.350;7.578;2022-11-14T06:04:04;99535.44;;;4.53;93.98
47883;BME280;37739;50.350;7.578;2022-11-14T06:06:29;99541.66;;;4.58;93.70
47883;BME280;37739;50.350;7.578;2022-11-14T06:08:55;99533.31;;;4.61;93.44
47883;BME280;37739;50.350;7.578;2022-11-14T06:11:22;99529.19;;;4.63;93.55
47883;BME280;37739;50.350;7.578;2022-11-14T06:13:48;99529.97;;;4.62;93.69
47883;BME280;37739;50.350;7.578;2022-11-14T06:16:17;99525.88;;;4.64;93.56
47883;BME280;37739;50.350;7.578;2022-11-14T06:18:44;99528.69;;;4.53;93.80
47883;BME280;37739;50.350;7.578;2022-11-14T06:21:17;99533.00;;;4.55;93.95
47883;BME280;37739;50.350;7.578;2022-11-14T06:23:43;99538.22;;;4.58;93.94
47883;BME280;37739;50.350;7.578;2022-11-14T06:26:21;99536.50;;;4.57;93.34
47883;BME280;37739;50.350;7.578;2022-11-14T06:28:48;99530.88;;;4.62;93.85
47883;BME280;37739;50.350;7.578;2022-11-14T06:31:15;99521.41;;;4.60;93.74
47883;BME280;37739;50.350;7.578;2022-11-14T06:33:40;99527.38;;;4.60;94.30
47883;BME280;37739;50.350;7.578;2022-11-14T06:36:07;99525.47;;;4.56;94.38
47883;BME280;37739;50.350;7.578;2022-11-14T06:38:36;99523.59;;;4.53;94.92
47883;BME280;37739;50.350;7.578;2022-11-14T06:41:05;99524.91;;;4.62;95.07
47883;BME280;37739;50.350;7.578;2022-11-14T06:43:38;99523.06;;;4.74;94.88
47883;BME280;37739;50.350;7.578;2022-11-14T06:46:04;99515.00;;;4.81;94.50
47883;BME280;37739;50.350;7.578;2022-11-14T06:48:35;99523.81;;;4.88;94.42
47883;BME280;37739;50.350;7.578;2022-11-14T06:51:02;99525.63;;;4.90;94.15
47883;BME280;37739;50.350;7.578;2022-11-14T06:53:30;99534.22;;;4.92;94.23
47883;BME280;37739;50.350;7.578;2022-11-14T06:56:02;99532.03;;;4.99;94.34
47883;BME280;37739;50.350;7.578;2022-11-14T06:58:35;99532.28;;;5.03;94.06
47883;BME280;37739;50.350;7.578;2022-11-14T07:01:22;99531.56;;;5.06;93.99
47883;BME280;37739;50.350;7.578;2022-11-14T07:03:48;99529.09;;;5.07;94.02
47883;BME280;37739;50.350;7.578;2022-11-14T07:06:22;99525.38;;;5.01;94.71
47883;BME280;37739;50.350;7.578;2022-11-14T07:08:47;99530.72;;;4.90;95.22
47883;BME280;37739;50.350;7.578;2022-11-14T07:11:17;99529.31;;;4.96;95.50
47883;BME280;37739;50.350;7.578;2022-11-14T07:14:00;99532.72;;;4.96;95.71
47883;BME280;37739;50.350;7.578;2022-11-14T07:16:32;99532.09;;;5.00;95.49
47883;BME280;37739;50.350;7.578;2022-11-14T07:19:04;99538.31;;;5.05;95.54
47883;BME280;37739;50.350;7.578;2022-11-14T07:21:33;99538.66;;;5.11;95.16
47883;BME280;37739;50.350;7.578;2022-11-14T07:23:58;99529.19;;;5.09;95.51
47883;BME280;37739;50.350;7.578;2022-11-14T07:26:24;99535.47;;;5.16;95.37
47883;BME280;37739;50.350;7.578;2022-11-14T07:28:50;99529.69;;;5.18;95.46
47883;BME280;37739;50.350;7.578;2022-11-14T07:31:16;99523.75;;;5.18;95.47
47883;BME280;37739;50.350;7.578;2022-11-14T07:33:43;99519.94;;;5.26;95.47
47883;BME280;37739;50.350;7.578;2022-11-14T07:36:10;99512.53;;;5.30;95.18
47883;BME280;37739;50.350;7.578;2022-11-14T07:38:37;99520.44;;;5.35;95.18
47883;BME280;37739;50.350;7.578;2022-11-14T07:41:05;99516.84;;;5.31;95.36
47883;BME280;37739;50.350;7.578;2022-11-14T07:43:31;99512.63;;;5.32;95.63
47883;BME280;37739;50.350;7.578;2022-11-14T07:46:05;99511.13;;;5.36;95.68
47883;BME280;37739;50.350;7.578;2022-11-14T07:48:32;99507.94;;;5.40;95.57
47883;BME280;37739;50.350;7.578;2022-11-14T07:50:58;99508.19;;;5.44;95.56
47883;BME280;37739;50.350;7.578;2022-11-14T07:53:28;99504.94;;;5.47;95.58
47883;BME280;37739;50.350;7.578;2022-11-14T07:55:54;99512.81;;;5.51;95.38
47883;BME280;37739;50.350;7.578;2022-11-14T07:58:20;99503.50;;;5.52;95.17
47883;BME280;37739;50.350;7.578;2022-11-14T08:00:45;99509.63;;;5.56;95.25
47883;BME280;37739;50.350;7.578;2022-11-14T08:03:10;99505.41;;;5.56;95.15
47883;BME280;37739;50.350;7.578;2022-11-14T08:05:38;99512.97;;;5.55;95.64
47883;BME280;37739;50.350;7.578;2022-11-14T08:08:04;99506.28;;;5.57;95.54
47883;BME280;37739;50.350;7.578;2022-11-14T08:10:30;99511.28;;;5.55;95.79
47883;BME280;37739;50.350;7.578;2022-11-14T08:12:59;99515.75;;;5.59;95.86
47883;BME280;37739;50.350;7.578;2022-11-14T08:15:27;99514.25;;;5.63;95.57
47883;BME280;37739;50.350;7.578;2022-11-14T08:17:57;99517.81;;;5.66;95.82
47883;BME280;37739;50.350;7.578;2022-11-14T08:20:23;99512.00;;;5.69;95.11
47883;BME280;37739;50.350;7.578;2022-11-14T08:22:53;99516.38;;;5.71;95.28
47883;BME280;37739;50.350;7.578;2022-11-14T08:25:21;99507.00;;;5.70;95.38
47883;BME280;37739;50.350;7.578;2022-11-14T08:27:49;99513.22;;;5.76;95.45
47883;BME280;37739;50.350;7.578;2022-11-14T08:30:14;99511.53;;;5.76;95.20
47883;BME280;37739;50.350;7.578;2022-11-14T08:32:39;99506.19;;;5.71;95.87
47883;BME280;37739;50.350;7.578;2022-11-14T08:35:05;99493.47;;;5.71;95.97
47883;BME280;37739;50.350;7.578;2022-11-14T08:37:30;99500.50;;;5.76;95.74
47883;BME280;37739;50.350;7.578;2022-11-14T08:39:56;99500.16;;;5.69;96.50
47883;BME280;37739;50.350;7.578;2022-11-14T08:42:21;99499.53;;;5.74;96.67
47883;BME280;37739;50.350;7.578;2022-11-14T08:44:51;99494.75;;;5.80;95.97
47883;BME280;37739;50.350;7.578;2022-11-14T08:47:17;99501.25;;;5.75;95.92
47883;BME280;37739;50.350;7.578;2022-11-14T08:49:44;99505.88;;;5.82;95.60
47883;BME280;37739;50.350;7.578;2022-11-14T08:52:09;99505.31;;;5.87;95.09
47883;BME280;37739;50.350;7.578;2022-11-14T08:54:35;99496.88;;;5.88;94.97
47883;BME280;37739;50.350;7.578;2022-11-14T08:57:02;99498.56;;;5.88;95.71
47883;BME280;37739;50.350;7.578;2022-11-14T08:59:29;99500.66;;;5.95;95.56
47883;BME280;37739;50.350;7.578;2022-11-14T09:01:55;99494.81;;;5.98;95.20
47883;BME280;37739;50.350;7.578;2022-11-14T09:04:20;99493.31;;;6.01;94.76
47883;BME280;37739;50.350;7.578;2022-11-14T09:06:45;99496.66;;;6.00;94.30
47883;BME280;37739;50.350;7.578;2022-11-14T09:09:11;99493.53;;;6.06;93.99
47883;BME280;37739;50.350;7.578;2022-11-14T09:11:36;99498.88;;;6.11;94.07
47883;BME280;37739;50.350;7.578;2022-11-14T09:14:04;99492.31;;;6.16;94.15
47883;BME280;37739;50.350;7.578;2022-11-14T09:16:29;99487.38;;;6.19;93.88
47883;BME280;37739;50.350;7.578;2022-11-14T09:18:55;99497.88;;;6.25;93.81
47883;BME280;37739;50.350;7.578;2022-11-14T09:21:20;99497.09;;;6.26;93.50
47883;BME280;37739;50.350;7.578;2022-11-14T09:23:48;99496.28;;;6.27;93.51
47883;BME280;37739;50.350;7.578;2022-11-14T09:26:13;99502.25;;;6.27;93.55
47883;BME280;37739;50.350;7.578;2022-11-14T09:28:42;99491.25;;;6.28;93.67
47883;BME280;37739;50.350;7.578;2022-11-14T09:31:11;99495.31;;;6.25;93.05
47883;BME280;37739;50.350;7.578;2022-11-14T09:33:37;99497.94;;;6.26;93.62
47883;BME280;37739;50.350;7.578;2022-11-14T09:36:04;99515.06;;;6.29;93.61
47883;BME280;37739;50.350;7.578;2022-11-14T09:38:30;99509.09;;;6.28;93.74
47883;BME280;37739;50.350;7.578;2022-11-14T09:41:22;99512.50;;;6.29;93.57
47883;BME280;37739;50.350;7.578;2022-11-14T09:47:10;99516.91;;;6.32;93.34
47883;BME280;37739;50.350;7.578;2022-11-14T09:49:40;99515.22;;;6.32;93.05
47883;BME280;37739;50.350;7.578;2022-11-14T09:54:55;99520.47;;;6.35;93.39
47883;BME280;37739;50.350;7.578;2022-11-14T09:57:22;99521.19;;;6.33;93.76
47883;BME280;37739;50.350;7.578;2022-11-14T09:59:49;99516.81;;;6.30;93.23
47883;BME280;37739;50.350;7.578;2022-11-14T10:02:32;99517.97;;;6.37;93.47
47883;BME280;37739;50.350;7.578;2022-11-14T10:05:21;99525.78;;;6.40;93.32
47883;BME280;37739;50.350;7.578;2022-11-14T10:13:47;99517.97;;;6.37;93.61
47883;BME280;37739;50.350;7.578;2022-11-14T10:27:24;99514.94;;;6.44;91.83
47883;BME280;37739;50.350;7.578;2022-11-14T10:30:16;99505.69;;;6.46;91.59
47883;BME280;37739;50.350;7.578;2022-11-14T10:35:23;99501.03;;;6.55;90.67
47883;BME280;37739;50.350;7.578;2022-11-14T10:40:21;99513.94;;;6.58;91.39
47883;BME280;37739;50.350;7.578;2022-11-14T10:42:54;99508.13;;;6.61;91.38
47883;BME280;37739;50.350;7.578;2022-11-14T10:45:27;99510.09;;;6.66;91.22
47883;BME280;37739;50.350;7.578;2022-11-14T10:47:59;99501.84;;;6.72;90.62
47883;BME280;37739;50.350;7.578;2022-11-14T10:50:36;99514.53;;;6.71;90.29
47883;BME280;37739;50.350;7.578;2022-11-14T10:55:54;99497.97;;;6.80;90.01
47883;BME280;37739;50.350;7.578;2022-11-14T10:58:20;99481.34;;;6.88;90.23
47883;BME280;37739;50.350;7.578;2022-11-14T11:00:46;99471.41;;;7.13;89.61
47883;BME280;37739;50.350;7.578;2022-11-14T11:03:12;99468.69;;;7.27;88.69
47883;BME280;37739;50.350;7.578;2022-11-14T11:05:51;99465.47;;;7.32;88.78
47883;BME280;37739;50.350;7.578;2022-11-14T11:08:21;99460.16;;;7.27;87.27
47883;BME280;37739;50.350;7.578;2022-11-14T11:11:11;99461.22;;;7.32;87.73
47883;BME280;37739;50.350;7.578;2022-11-14T11:13:57;99458.16;;;7.39;87.94
47883;BME280;37739;50.350;7.578;2022-11-14T11:16:26;99450.69;;;7.44;87.81
47883;BME280;37739;50.350;7.578;2022-11-14T11:19:13;99451.69;;;7.47;87.02
47883;BME280;37739;50.350;7.578;2022-11-14T11:21:50;99454.41;;;7.51;87.08
47883;BME280;37739;50.350;7.578;2022-11-14T11:24:34;99455.97;;;7.48;87.24
47883;BME280;37739;50.350;7.578;2022-11-14T11:30:01;99452.50;;;7.46;87.22
47883;BME280;37739;50.350;7.578;2022-11-14T11:32:27;99439.13;;;7.52;87.27
47883;BME280;37739;50.350;7.578;2022-11-14T11:34:56;99441.91;;;7.57;87.13
47883;BME280;37739;50.350;7.578;2022-11-14T11:37:27;99446.31;;;7.61;87.69
47883;BME280;37739;50.350;7.578;2022-11-14T11:40:01;99434.16;;;7.55;86.57
47883;BME280;37739;50.350;7.578;2022-11-14T11:42:39;99428.81;;;7.49;86.78
47883;BME280;37739;50.350;7.578;2022-11-14T11:45:15;99439.69;;;7.45;86.43
47883;BME280;37739;50.350;7.578;2022-11-14T11:47:56;99443.84;;;7.43;86.49
47883;BME280;37739;50.350;7.578;2022-11-14T11:50:22;99436.72;;;7.36;87.12
47883;BME280;37739;50.350;7.578;2022-11-14T11:53:13;99422.53;;;7.42;86.78
47883;BME280;37739;50.350;7.578;2022-11-14T11:55:45;99417.66;;;7.47;86.44
47883;BME280;37739;50.350;7.578;2022-11-14T11:58:21;99416.97;;;7.51;86.59
47883;BME280;37739;50.350;7.578;2022-11-14T12:00:54;99424.69;;;7.53;85.76
47883;BME280;37739;50.350;7.578;2022-11-14T12:03:22;99409.25;;;7.50;85.86
47883;BME280;37739;50.350;7.578;2022-11-14T12:11:13;99399.91;;;7.50;85.59
47883;BME280;37739;50.350;7.578;2022-11-14T12:28:33;99388.72;;;7.67;85.41
47883;BME280;37739;50.350;7.578;2022-11-14T12:31:10;99388.94;;;7.72;85.50
47883;BME280;37739;50.350;7.578;2022-11-14T12:33:58;99384.94;;;7.79;85.65
47883;BME280;37739;50.350;7.578;2022-11-14T12:36:31;99384.25;;;7.83;84.99
47883;BME280;37739;50.350;7.578;2022-11-14T12:38:58;99380.06;;;7.85;85.39
47883;BME280;37739;50.350;7.578;2022-11-14T12:41:29;99374.94;;;7.83;85.36
47883;BME280;37739;50.350;7.578;2022-11-14T12:44:30;99386.88;;;7.84;85.17
47883;BME280;37739;50.350;7.578;2022-11-14T12:49:56;99381.13;;;7.90;84.58
47883;BME280;37739;50.350;7.578;2022-11-14T12:58:12;99375.66;;;8.02;84.80
47883;BME280;37739;50.350;7.578;2022-11-14T13:10:51;99374.72;;;8.00;84.72
47883;BME280;37739;50.350;7.578;2022-11-14T13:13:22;99376.41;;;7.99;84.64
47883;BME280;37739;50.350;7.578;2022-11-14T13:16:21;99366.97;;;7.97;84.61
47883;BME280;37739;50.350;7.578;2022-11-14T13:27:27;99359.22;;;7.95;84.48
47883;BME280;37739;50.350;7.578;2022-11-14T13:29:53;99348.06;;;7.93;85.07
47883;BME280;37739;50.350;7.578;2022-11-14T13:35:17;99342.28;;;7.97;84.68
47883;BME280;37739;50.350;7.578;2022-11-14T13:40:41;99348.50;;;8.04;84.83
47883;BME280;37739;50.350;7.578;2022-11-14T13:51:20;99326.88;;;7.96;85.25
47883;BME280;37739;50.350;7.578;2022-11-14T13:53:51;99328.50;;;7.94;85.24
47883;BME280;37739;50.350;7.578;2022-11-14T14:10:00;99327.34;;;7.85;85.50
47883;BME280;37739;50.350;7.578;2022-11-14T14:20:25;99314.66;;;7.89;85.88
47883;BME280;37739;50.350;7.578;2022-11-14T14:25:55;99312.25;;;7.92;86.02
47883;BME280;37739;50.350;7.578;2022-11-14T14:31:13;99311.50;;;7.94;85.76
47883;BME280;37739;50.350;7.578;2022-11-14T14:33:43;99309.75;;;7.93;85.87
47883;BME280;37739;50.350;7.578;2022-11-14T14:36:17;99309.69;;;7.92;86.22
47883;BME280;37739;50.350;7.578;2022-11-14T14:38:44;99312.19;;;7.90;86.38
47883;BME280;37739;50.350;7.578;2022-11-14T14:41:10;99312.19;;;7.90;86.74
47883;BME280;37739;50.350;7.578;2022-11-14T14:43:40;99307.06;;;7.90;86.52
47883;BME280;37739;50.350;7.578;2022-11-14T14:46:06;99305.34;;;7.89;86.59
47883;BME280;37739;50.350;7.578;2022-11-14T14:48:34;99304.53;;;7.90;86.73
47883;BME280;37739;50.350;7.578;2022-11-14T14:51:09;99307.94;;;7.91;87.18
47883;BME280;37739;50.350;7.578;2022-11-14T14:53:36;99306.28;;;7.91;86.92
47883;BME280;37739;50.350;7.578;2022-11-14T14:56:03;99297.78;;;7.92;86.77
47883;BME280;37739;50.350;7.578;2022-11-14T14:58:31;99300.28;;;7.91;86.89
47883;BME280;37739;50.350;7.578;2022-11-14T15:01:07;99293.53;;;7.93;86.97
47883;BME280;37739;50.350;7.578;2022-11-14T15:08:44;99295.31;;;7.94;87.03
47883;BME280;37739;50.350;7.578;2022-11-14T15:11:14;99285.03;;;7.92;87.43
47883;BME280;37739;50.350;7.578;2022-11-14T15:13:41;99279.97;;;7.94;87.05
47883;BME280;37739;50.350;7.578;2022-11-14T15:16:08;99284.25;;;7.95;87.12
47883;BME280;37739;50.350;7.578;2022-11-14T15:18:36;99279.13;;;7.93;87.20
47883;BME280;37739;50.350;7.578;2022-11-14T15:21:27;99278.34;;;7.96;87.29
47883;BME280;37739;50.350;7.578;2022-11-14T15:24:14;99275.00;;;7.97;87.10
47883;BME280;37739;50.350;7.578;2022-11-14T15:26:42;99274.09;;;7.96;87.25
47883;BME280;37739;50.350;7.578;2022-11-14T15:29:18;99271.56;;;7.96;87.24
47883;BME280;37739;50.350;7.578;2022-11-14T15:31:46;99271.69;;;7.99;87.47